Time;durP1;ratioP1;P1;durP2;ratioP2;P2;SDS_P1;SDS_P2;PMS_P1;PMS_P2;Temp;Humidity;BMP_temperature;BMP_pressure;BME280_temperature;BME280_humidity;BME280_pressure;Samples;Min_cycle;Max_cycle;Signal;HPM_P1;HPM_P2
2022/12/19 00:00:42;;;;;;;6.28;2.22;;;21.30;53.20;;;;;;4063013;29;20432;-46
2022/12/19 00:03:05;;;;;;;5.72;2.30;;;21.20;53.20;;;;;;4062390;29;20102;-47
2022/12/19 00:05:27;;;;;;;5.93;1.67;;;21.30;53.30;;;;;;4056892;29;20172;-46
2022/12/19 00:07:52;;;;;;;5.78;1.98;;;21.30;53.30;;;;;;4059600;29;20040;-46
2022/12/19 00:10:15;;;;;;;5.47;1.85;;;21.30;53.30;;;;;;4064919;29;20115;-45
2022/12/19 00:12:37;;;;;;;6.75;2.30;;;21.30;53.20;;;;;;4058909;29;20460;-45
2022/12/19 00:15:00;;;;;;;5.05;1.80;;;21.30;53.20;;;;;;4062149;29;20036;-45
2022/12/19 00:17:23;;;;;;;6.43;1.80;;;21.40;53.10;;;;;;4057850;29;20051;-46
2022/12/19 00:24:17;;;;;;;6.45;2.10;;;21.40;53.00;;;;;;2947985;23;19931;-53
2022/12/19 00:26:39;;;;;;;6.60;2.28;;;21.40;53.00;;;;;;4055338;29;20452;-46
2022/12/19 00:29:06;;;;;;;5.82;2.20;;;21.40;53.00;;;;;;4067375;29;20036;-49
2022/12/19 00:31:31;;;;;;;6.22;2.05;;;21.40;53.10;;;;;;4069656;29;20103;-52
2022/12/19 00:33:54;;;;;;;7.82;1.92;;;21.40;53.00;;;;;;4068948;29;20562;-51
2022/12/19 00:36:19;;;;;;;12.27;2.83;;;21.40;53.00;;;;;;4069583;29;20042;-49
2022/12/19 00:38:42;;;;;;;7.50;2.30;;;21.50;54.00;;;;;;4068670;29;20043;-49
2022/12/19 00:41:10;;;;;;;8.60;2.58;;;21.50;53.20;;;;;;4045706;29;20322;-46
2022/12/19 00:43:33;;;;;;;7.82;2.53;;;21.60;53.30;;;;;;4058915;29;20051;-49
2022/12/19 00:45:55;;;;;;;6.60;2.00;;;21.60;53.40;;;;;;4067220;29;20297;-50
2022/12/19 00:48:18;;;;;;;9.85;2.22;;;21.60;53.30;;;;;;4069264;29;20412;-51
2022/12/19 00:50:40;;;;;;;6.13;1.88;;;21.60;53.30;;;;;;4301265;23;20090;-62
2022/12/19 00:53:03;;;;;;;7.72;2.80;;;21.60;53.30;;;;;;4058189;29;20447;-61
2022/12/19 00:55:25;;;;;;;9.05;2.35;;;21.60;53.10;;;;;;4063176;29;20035;-61
2022/12/19 00:57:48;;;;;;;6.47;2.15;;;21.60;53.20;;;;;;4057306;29;20047;-60
2022/12/19 01:00:11;;;;;;;9.68;2.50;;;21.60;53.20;;;;;;4058075;29;20036;-60
2022/12/19 01:02:34;;;;;;;5.65;1.95;;;21.60;53.30;;;;;;4060434;29;20032;-61
2022/12/19 01:04:56;;;;;;;7.68;2.00;;;21.50;53.30;;;;;;4059228;29;20036;-59
2022/12/19 01:07:19;;;;;;;9.88;2.60;;;21.50;53.30;;;;;;4061021;29;20056;-60
2022/12/19 01:09:41;;;;;;;6.00;1.92;;;21.50;53.40;;;;;;4063741;29;20066;-63
2022/12/19 01:14:46;;;;;;;6.63;2.42;;;21.60;53.50;;;;;;4057535;29;20046;-51
2022/12/19 01:17:09;;;;;;;11.23;2.80;;;21.60;53.80;;;;;;4067761;29;20471;-59
2022/12/19 01:19:31;;;;;;;10.63;2.65;;;21.60;54.10;;;;;;4065235;29;20392;-57
2022/12/19 01:21:54;;;;;;;9.75;2.65;;;21.60;54.60;;;;;;4067547;29;20036;-54
2022/12/19 01:24:17;;;;;;;9.20;2.58;;;21.70;54.00;;;;;;4067442;29;20047;-52
2022/12/19 01:26:39;;;;;;;7.63;2.55;;;21.70;53.60;;;;;;4065359;29;20035;-51
2022/12/19 01:29:02;;;;;;;8.45;2.58;;;21.70;53.10;;;;;;4066907;29;20043;-56
2022/12/19 01:31:24;;;;;;;9.50;2.58;;;21.70;52.80;;;;;;4068666;29;20043;-51
2022/12/19 01:33:47;;;;;;;8.57;2.38;;;21.70;52.70;;;;;;4066471;29;20480;-53
2022/12/19 01:36:09;;;;;;;11.02;2.80;;;21.60;52.50;;;;;;4067885;29;20043;-52
2022/12/19 01:38:33;;;;;;;7.38;2.30;;;21.70;52.70;;;;;;4065835;29;20048;-52
2022/12/19 01:40:57;;;;;;;8.40;2.80;;;21.70;52.60;;;;;;4062437;29;20038;-59
2022/12/19 01:43:19;;;;;;;;;;;21.80;52.80;;;;;;4059951;29;20039;-57
2022/12/19 01:45:42;;;;;;;6.88;2.38;;;21.80;52.30;;;;;;4060790;29;20410;-57
2022/12/19 01:48:18;;;;;;;8.77;3.15;;;21.80;52.20;;;;;;4061186;29;20059;-51
2022/12/19 01:50:58;;;;;;;10.00;2.40;;;21.90;51.90;;;;;;4062588;29;20295;-55
2022/12/19 01:53:24;;;;;;;9.27;2.55;;;21.90;52.00;;;;;;4061375;29;20314;-54
2022/12/19 01:55:47;;;;;;;9.88;2.38;;;22.00;52.50;;;;;;4061739;29;20116;-50
2022/12/19 01:58:12;;;;;;;8.65;2.55;;;22.00;52.90;;;;;;4064243;29;20095;-54
2022/12/19 02:00:35;;;;;;;6.63;2.28;;;22.00;53.00;;;;;;4061067;29;20063;-55
2022/12/19 02:03:14;;;;;;;5.70;1.92;;;22.10;52.80;;;;;;4058695;29;20036;-52
2022/12/19 02:05:38;;;;;;;7.30;2.00;;;22.10;52.70;;;;;;4058290;29;20096;-62
2022/12/19 02:08:02;;;;;;;5.43;2.00;;;22.20;52.60;;;;;;4061071;29;20043;-59
2022/12/19 02:10:25;;;;;;;6.47;2.17;;;22.20;52.50;;;;;;4062112;29;20032;-58
2022/12/19 02:12:47;;;;;;;8.52;2.22;;;22.30;52.60;;;;;;4065404;29;20051;-56
2022/12/19 02:15:12;;;;;;;8.45;2.30;;;22.30;52.40;;;;;;4054045;29;20119;-57
2022/12/19 02:17:52;;;;;;;5.40;2.03;;;22.40;52.50;;;;;;4060341;29;20056;-58
2022/12/19 02:20:39;;;;;;;5.82;2.13;;;22.40;52.10;;;;;;4069707;29;20035;-56
2022/12/19 02:23:54;;;;;;;9.65;2.30;;;22.40;52.20;;;;;;4072776;29;20118;-48
2022/12/19 02:26:36;;;;;;;8.23;2.10;;;22.40;51.50;;;;;;4066598;29;20058;-56
2022/12/19 02:29:35;;;;;;;7.50;2.63;;;22.40;51.10;;;;;;4058699;29;20040;-50
2022/12/19 02:32:40;;;;;;;6.93;2.25;;;22.40;50.80;;;;;;4060783;29;20035;-51
2022/12/19 02:35:05;;;;;;;5.78;2.22;;;22.50;50.50;;;;;;4058979;29;20464;-50
2022/12/19 02:37:37;;;;;;;9.95;2.63;;;22.50;50.50;;;;;;4051937;29;20047;-50
2022/12/19 02:40:34;;;;;;;7.35;2.35;;;22.50;50.40;;;;;;4052904;29;20036;-49
2022/12/19 02:43:00;;;;;;;7.72;2.70;;;22.50;50.00;;;;;;4052911;29;20040;-49
2022/12/19 02:45:24;;;;;;;7.15;2.58;;;22.50;49.90;;;;;;4055121;29;20555;-47
2022/12/19 02:47:47;;;;;;;7.70;2.45;;;22.40;49.80;;;;;;4053302;29;20040;-51
2022/12/19 02:50:10;;;;;;;6.37;2.50;;;22.40;49.90;;;;;;4054867;29;20048;-52
2022/12/19 02:52:33;;;;;;;8.38;2.72;;;22.40;49.50;;;;;;4058107;29;20292;-51
2022/12/19 02:54:59;;;;;;;7.90;2.35;;;22.40;49.50;;;;;;4053766;29;20126;-49
2022/12/19 02:57:22;;;;;;;6.50;2.22;;;22.50;49.60;;;;;;4053763;29;20536;-48
2022/12/19 02:59:56;;;;;;;8.75;2.28;;;22.50;49.60;;;;;;4052059;29;20514;-48
2022/12/19 03:02:41;;;;;;;10.50;2.58;;;22.50;49.50;;;;;;4062274;29;20109;-54
2022/12/19 03:05:36;;;;;;;8.27;2.75;;;22.40;49.50;;;;;;4068672;29;20452;-55
2022/12/19 03:08:01;;;;;;;10.00;2.65;;;22.50;49.60;;;;;;4040486;29;21258;-47
2022/12/19 03:10:48;;;;;;;7.65;2.47;;;22.50;49.70;;;;;;4063692;29;20523;-49
2022/12/19 03:13:20;;;;;;;11.75;2.97;;;22.50;49.90;;;;;;4061402;29;20420;-50
2022/12/19 03:15:44;;;;;;;9.50;2.85;;;22.50;50.00;;;;;;4068525;29;20075;-53
2022/12/19 03:18:07;;;;;;;6.97;2.53;;;22.60;50.00;;;;;;4068774;29;20082;-53
2022/12/19 03:20:44;;;;;;;8.43;3.05;;;22.60;50.00;;;;;;4069973;29;20455;-47
2022/12/19 03:23:06;;;;;;;7.85;4.75;;;22.60;50.00;;;;;;4070216;29;20464;-47
2022/12/19 03:25:31;;;;;;;12.60;5.35;;;22.70;50.10;;;;;;4070605;29;20051;-52
2022/12/19 03:27:57;;;;;;;9.32;4.88;;;22.60;50.20;;;;;;4067991;29;20505;-53
2022/12/19 03:30:19;;;;;;;9.73;5.25;;;22.60;50.40;;;;;;4069663;29;20458;-54
2022/12/19 03:32:45;;;;;;;9.27;4.40;;;22.60;50.60;;;;;;4069798;29;20043;-55
2022/12/19 03:35:10;;;;;;;8.60;4.72;;;22.60;50.90;;;;;;4066877;29;20118;-54
2022/12/19 03:37:36;;;;;;;17.67;14.27;;;22.60;51.10;;;;;;4063084;29;20039;-54
2022/12/19 03:40:06;;;;;;;21.48;17.75;;;22.70;51.20;;;;;;4067655;29;20559;-52
2022/12/19 03:45:14;;;;;;;30.42;27.60;;;22.70;51.30;;;;;;4059862;29;20492;-54
2022/12/19 03:47:56;;;;;;;33.05;30.00;;;22.60;51.40;;;;;;4067054;29;20047;-58
2022/12/19 03:50:19;;;;;;;33.75;30.27;;;22.60;51.60;;;;;;4066056;29;20070;-57
2022/12/19 03:53:22;;;;;;;28.33;25.60;;;22.60;51.70;;;;;;4066781;29;20070;-60
2022/12/19 03:55:50;;;;;;;28.90;25.85;;;22.60;51.70;;;;;;4066637;29;20044;-54
2022/12/19 03:58:20;;;;;;;24.08;21.50;;;22.60;51.70;;;;;;4061945;29;20075;-51
2022/12/19 04:00:49;;;;;;;20.27;18.10;;;22.70;51.70;;;;;;4059160;29;20440;-53
2022/12/19 04:03:12;;;;;;;20.92;18.60;;;22.70;51.40;;;;;;4057377;29;20035;-53
2022/12/19 04:05:37;;;;;;;19.50;17.33;;;22.70;51.40;;;;;;4068566;29;20056;-52
2022/12/19 04:08:03;;;;;;;19.30;15.85;;;22.80;51.30;;;;;;4063074;29;20039;-48
2022/12/19 04:10:28;;;;;;;23.58;17.73;;;22.80;51.30;;;;;;4064836;29;20419;-53
2022/12/19 04:13:13;;;;;;;20.63;18.42;;;22.80;51.30;;;;;;4051844;29;20111;-57
2022/12/19 04:15:58;;;;;;;20.17;16.58;;;22.80;51.10;;;;;;4063952;29;20044;-54
2022/12/19 04:18:20;;;;;;;;;;;22.80;50.80;;;;;;4069291;29;20039;-49
2022/12/19 04:21:03;;;;;;;14.50;11.50;;;22.80;50.50;;;;;;4065829;29;20005;-52
2022/12/19 04:23:57;;;;;;;15.23;11.85;;;22.80;50.60;;;;;;4070848;29;20138;-49
2022/12/19 04:26:25;;;;;;;13.80;9.88;;;22.80;50.70;;;;;;4065150;29;20119;-55
2022/12/19 04:29:08;;;;;;;12.23;9.55;;;22.80;50.40;;;;;;4071637;29;20031;-51
2022/12/19 04:33:35;;;;;;;10.88;7.47;;;22.80;50.50;;;;;;4032564;29;20131;-46
2022/12/19 04:35:57;;;;;;;11.70;6.20;;;22.80;49.70;;;;;;4047015;29;20036;-47
2022/12/19 04:38:20;;;;;;;11.75;6.43;;;22.90;49.60;;;;;;4045919;29;20040;-48
2022/12/19 04:40:42;;;;;;;8.75;6.03;;;22.90;49.50;;;;;;4049512;29;20123;-48
2022/12/19 04:43:07;;;;;;;10.13;4.88;;;22.90;49.50;;;;;;4050719;29;20070;-43
2022/12/19 04:45:29;;;;;;;7.22;4.30;;;22.90;48.70;;;;;;4047370;29;20075;-46
2022/12/19 04:47:52;;;;;;;9.20;3.97;;;22.90;48.20;;;;;;4046761;29;20142;-46
2022/12/19 04:50:20;;;;;;;7.45;4.03;;;22.90;47.90;;;;;;4352070;23;20047;-47
2022/12/19 04:52:43;;;;;;;7.15;4.00;;;22.90;48.20;;;;;;4067335;29;20459;-47
2022/12/19 04:55:06;;;;;;;7.72;3.90;;;23.00;48.40;;;;;;4065841;29;20043;-47
2022/12/19 04:57:31;;;;;;;12.48;3.85;;;23.00;48.30;;;;;;4060019;29;20078;-44
2022/12/19 04:59:53;;;;;;;5.82;2.97;;;22.90;48.40;;;;;;4072701;29;20046;-51
2022/12/19 05:02:16;;;;;;;8.70;3.45;;;23.00;48.30;;;;;;4074831;29;20043;-46
2022/12/19 05:04:38;;;;;;;8.07;3.20;;;23.00;48.40;;;;;;4075714;29;20048;-45
2022/12/19 05:07:04;;;;;;;8.18;3.60;;;22.90;48.30;;;;;;4075890;29;20051;-49
2022/12/19 05:09:26;;;;;;;6.57;3.38;;;23.00;48.40;;;;;;4077075;29;20036;-47
2022/12/19 05:11:49;;;;;;;4.90;2.80;;;22.90;48.10;;;;;;4076351;29;20040;-45
2022/12/19 05:14:11;;;;;;;8.43;2.83;;;22.90;48.20;;;;;;4067428;29;20460;-47
2022/12/19 05:16:34;;;;;;;5.88;2.80;;;22.90;48.30;;;;;;4072491;29;20418;-45
2022/12/19 05:18:57;;;;;;;8.38;2.90;;;22.80;48.30;;;;;;4067373;29;20036;-43
2022/12/19 05:21:21;;;;;;;7.85;2.90;;;22.80;48.30;;;;;;4069026;29;20032;-47
2022/12/19 05:23:43;;;;;;;6.25;2.47;;;22.80;48.40;;;;;;4060817;29;20039;-50
2022/12/19 05:26:07;;;;;;;7.38;2.85;;;22.80;48.60;;;;;;4063443;29;20460;-56
2022/12/19 05:28:30;;;;;;;8.88;2.90;;;22.80;48.70;;;;;;4061696;29;20035;-50
2022/12/19 05:31:06;;;;;;;6.03;2.78;;;22.80;48.80;;;;;;4062652;29;20046;-52
2022/12/19 05:33:28;;;;;;;8.20;2.42;;;22.80;48.70;;;;;;4060927;29;20044;-46
2022/12/19 05:35:51;;;;;;;6.28;2.78;;;22.80;48.70;;;;;;4058343;29;20146;-45
2022/12/19 05:38:13;;;;;;;7.70;2.80;;;22.80;48.80;;;;;;4063008;29;20055;-48
2022/12/19 05:40:36;;;;;;;11.07;2.60;;;22.80;49.30;;;;;;4061270;29;20484;-45
2022/12/19 05:42:59;;;;;;;9.30;2.85;;;22.80;49.90;;;;;;4060417;29;20044;-43
2022/12/19 05:45:22;;;;;;;8.27;2.67;;;22.80;50.00;;;;;;4053247;29;20067;-42
2022/12/19 05:47:48;;;;;;;8.20;2.50;;;22.80;49.90;;;;;;4062211;29;20939;-51
2022/12/19 05:50:10;;;;;;;8.27;2.28;;;22.80;50.20;;;;;;4060935;29;20108;-47
2022/12/19 05:52:33;;;;;;;6.60;2.28;;;22.80;50.80;;;;;;4060414;29;20051;-44
2022/12/19 05:54:56;;;;;;;6.13;2.45;;;22.80;51.20;;;;;;4059739;29;20043;-48
2022/12/19 05:57:18;;;;;;;6.88;2.40;;;22.90;51.40;;;;;;4055258;29;20075;-50
2022/12/19 05:59:41;;;;;;;7.80;2.33;;;22.90;51.60;;;;;;4058869;29;20408;-48
2022/12/19 06:02:04;;;;;;;7.65;2.05;;;23.00;51.50;;;;;;4061665;29;20049;-49
2022/12/19 06:04:26;;;;;;;7.95;2.40;;;23.00;51.30;;;;;;4055350;29;20051;-47
2022/12/19 06:06:49;;;;;;;9.20;2.33;;;23.10;51.20;;;;;;4060608;29;20047;-51
2022/12/19 06:09:11;;;;;;;9.07;2.83;;;23.10;51.20;;;;;;4049606;29;20106;-46
2022/12/19 06:11:34;;;;;;;7.38;2.10;;;23.10;51.40;;;;;;4053851;29;20106;-43
2022/12/19 06:13:56;;;;;;;7.75;2.50;;;23.10;51.10;;;;;;4049232;29;20448;-43
2022/12/19 06:16:21;;;;;;;8.27;2.30;;;23.20;51.20;;;;;;4055272;29;20062;-42
2022/12/19 06:18:44;;;;;;;9.32;2.70;;;23.20;51.00;;;;;;4053247;29;20590;-46
2022/12/19 06:21:13;;;;;;;7.00;2.13;;;23.20;50.80;;;;;;4056899;29;20494;-43
2022/12/19 06:23:36;;;;;;;7.82;1.88;;;23.20;50.90;;;;;;4050606;29;21054;-48
2022/12/19 06:26:00;;;;;;;6.75;2.33;;;23.20;50.80;;;;;;4053541;29;20072;-50
2022/12/19 06:28:23;;;;;;;6.05;2.30;;;23.20;50.60;;;;;;4055206;29;20848;-46
2022/12/19 06:30:45;;;;;;;4.68;1.90;;;23.30;50.70;;;;;;4054870;29;20191;-47
2022/12/19 06:33:08;;;;;;;8.13;2.10;;;23.20;50.70;;;;;;4053262;29;20489;-43
2022/12/19 06:35:31;;;;;;;4.88;1.77;;;23.30;50.80;;;;;;4059740;29;20043;-41
2022/12/19 06:37:54;;;;;;;9.30;2.17;;;23.30;50.70;;;;;;4061351;29;20035;-46
2022/12/19 06:42:21;;;;;;;11.32;2.35;;;23.30;50.70;;;;;;4060299;29;20036;-45
2022/12/19 06:42:58;;;;;;;4.88;1.90;;;23.30;50.50;;;;;;4058736;29;20127;-45
2022/12/19 06:45:21;;;;;;;8.07;2.03;;;23.40;50.50;;;;;;4058827;29;20997;-45
2022/12/19 06:47:43;;;;;;;7.93;2.45;;;23.40;50.30;;;;;;4065523;29;20091;-46
2022/12/19 06:50:06;;;;;;;6.80;2.00;;;23.40;50.20;;;;;;4063248;29;20159;-45
2022/12/19 06:52:29;;;;;;;9.00;1.60;;;23.40;50.10;;;;;;4062777;29;20074;-46
2022/12/19 06:54:51;;;;;;;8.40;2.20;;;23.40;50.00;;;;;;4061029;29;20051;-42
2022/12/19 06:57:14;;;;;;;5.53;1.90;;;23.50;49.90;;;;;;4061468;29;20431;-43
2022/12/19 06:59:36;;;;;;;5.00;1.88;;;23.50;49.80;;;;;;4060511;29;20557;-47
2022/12/19 07:02:26;;;;;;;9.10;1.98;;;23.60;49.70;;;;;;4063420;29;20106;-45
2022/12/19 07:05:01;;;;;;;5.22;1.90;;;23.60;49.40;;;;;;4057198;29;20056;-44
2022/12/19 07:07:24;;;;;;;7.43;2.28;;;23.70;49.40;;;;;;4060485;29;20416;-50
2022/12/19 07:09:47;;;;;;;6.63;1.90;;;23.70;49.30;;;;;;4059109;29;20048;-49
2022/12/19 07:12:10;;;;;;;15.23;2.83;;;23.70;49.20;;;;;;4059379;29;20440;-47
2022/12/19 07:14:32;;;;;;;7.20;2.53;;;23.70;48.90;;;;;;4050110;29;20048;-45
2022/12/19 07:16:57;;;;;;;10.25;2.72;;;23.70;49.00;;;;;;4061295;29;20031;-46
2022/12/19 07:19:22;;;;;;;6.65;2.20;;;23.70;48.30;;;;;;4064828;29;20150;-46
2022/12/19 07:21:44;;;;;;;7.90;1.98;;;23.70;48.40;;;;;;4064686;29;20036;-46
2022/12/19 07:24:08;;;;;;;10.32;2.10;;;23.70;48.70;;;;;;4069588;29;20051;-48
2022/12/19 07:26:30;;;;;;;7.93;2.42;;;23.70;48.20;;;;;;4070173;29;20063;-45
2022/12/19 07:28:53;;;;;;;8.30;1.95;;;23.70;48.20;;;;;;4066592;29;20039;-51
2022/12/19 07:31:16;;;;;;;7.93;1.97;;;23.70;48.20;;;;;;4066846;29;20208;-45
2022/12/19 07:33:39;;;;;;;7.00;2.25;;;23.70;48.30;;;;;;4063806;29;20128;-49
2022/12/19 07:36:01;;;;;;;11.40;2.90;;;23.70;48.40;;;;;;4070982;29;20385;-46
2022/12/19 07:38:24;;;;;;;7.75;2.58;;;23.70;48.40;;;;;;4070182;29;20042;-48
2022/12/19 07:40:47;;;;;;;7.93;3.28;;;23.70;47.90;;;;;;4066428;29;20067;-50
2022/12/19 07:43:10;;;;;;;8.65;3.33;;;23.70;48.20;;;;;;4069524;29;20091;-49
2022/12/19 07:45:35;;;;;;;9.60;3.95;;;23.70;48.60;;;;;;4062392;29;20080;-46
2022/12/19 07:48:10;;;;;;;11.98;3.70;;;23.70;48.50;;;;;;4061548;29;20107;-48
2022/12/19 07:51:03;;;;;;;7.30;3.15;;;23.70;48.60;;;;;;4068804;29;20059;-51
2022/12/19 07:53:27;;;;;;;9.10;3.15;;;23.70;48.60;;;;;;3988963;29;20054;-47
2022/12/19 07:58:00;;;;;;;7.55;2.72;;;23.70;48.60;;;;;;4528440;23;20071;-49
2022/12/19 08:00:23;;;;;;;6.60;2.67;;;23.70;48.70;;;;;;4067106;23;20083;-59
2022/12/19 08:02:46;;;;;;;8.93;3.22;;;23.70;49.10;;;;;;4061808;29;20035;-59
2022/12/19 08:05:10;;;;;;;8.50;2.72;;;23.70;48.20;;;;;;4066217;29;20043;-44
2022/12/19 08:07:33;;;;;;;8.25;2.53;;;23.60;48.10;;;;;;4062855;29;20039;-46
2022/12/19 08:09:55;;;;;;;7.63;2.53;;;23.60;48.40;;;;;;4069765;29;20114;-61
2022/12/19 08:12:18;;;;;;;5.35;2.67;;;23.60;48.40;;;;;;4065081;29;20083;-47
2022/12/19 08:14:40;;;;;;;9.30;4.15;;;23.60;48.60;;;;;;4061456;29;20036;-46
2022/12/19 08:17:04;;;;;;;10.23;5.63;;;23.60;48.40;;;;;;4067147;29;20039;-43
2022/12/19 08:21:37;;;;;;;9.82;4.78;;;23.50;48.20;;;;;;4196215;23;20846;-49
2022/12/19 08:24:00;;;;;;;9.70;3.83;;;23.50;48.80;;;;;;4056449;29;21890;-51
2022/12/19 08:26:26;;;;;;;9.52;4.25;;;23.40;48.80;;;;;;4064196;29;20971;-55
2022/12/19 08:28:48;;;;;;;10.27;3.60;;;23.40;48.60;;;;;;4064154;29;20494;-55
2022/12/19 08:31:14;;;;;;;7.10;2.63;;;23.40;48.80;;;;;;4063298;29;20549;-50
2022/12/19 08:33:36;;;;;;;7.85;3.22;;;23.40;49.00;;;;;;4062865;29;20625;-55
2022/12/19 08:36:02;;;;;;;7.78;3.33;;;23.40;48.90;;;;;;4059311;29;20043;-55
2022/12/19 08:38:25;;;;;;;10.57;3.03;;;23.30;48.70;;;;;;4059876;29;20213;-51
2022/12/19 08:40:56;;;;;;;9.50;2.75;;;23.30;48.70;;;;;;4064813;29;20047;-50
2022/12/19 08:43:20;;;;;;;9.32;2.97;;;23.30;48.80;;;;;;4061867;29;20518;-47
2022/12/19 08:45:42;;;;;;;6.80;2.30;;;23.30;49.30;;;;;;4063607;29;20359;-49
2022/12/19 08:48:06;;;;;;;8.77;3.17;;;23.30;49.30;;;;;;4065912;29;20040;-52
2022/12/19 08:50:29;;;;;;;8.57;2.40;;;23.30;49.40;;;;;;4061270;29;20078;-50
2022/12/19 08:52:51;;;;;;;8.32;2.83;;;23.30;49.50;;;;;;4041660;29;20037;-50
2022/12/19 08:55:14;;;;;;;6.70;2.35;;;23.30;49.60;;;;;;4058517;29;20050;-53
2022/12/19 08:57:36;;;;;;;5.65;1.90;;;23.30;49.40;;;;;;4058021;29;20050;-54
2022/12/19 08:59:59;;;;;;;8.00;2.38;;;23.30;49.20;;;;;;4063261;29;20039;-53
2022/12/19 09:02:23;;;;;;;9.00;2.15;;;23.30;49.20;;;;;;4063947;29;20054;-48
2022/12/19 09:04:45;;;;;;;4.43;1.95;;;23.30;48.90;;;;;;4065469;29;20085;-48
2022/12/19 09:07:08;;;;;;;9.50;2.33;;;23.30;49.40;;;;;;4072483;29;20040;-49
2022/12/19 09:09:31;;;;;;;8.45;2.10;;;23.30;49.50;;;;;;4049645;29;20051;-56
2022/12/19 09:11:53;;;;;;;9.82;2.22;;;23.30;49.40;;;;;;4055331;29;20046;-45
2022/12/19 09:14:16;;;;;;;6.20;1.75;;;23.30;49.40;;;;;;4052587;29;20483;-54
2022/12/19 09:16:38;;;;;;;6.07;1.85;;;23.30;49.30;;;;;;4049137;29;20052;-48
2022/12/19 09:19:01;;;;;;;5.65;2.00;;;23.30;49.30;;;;;;4052049;29;20486;-47
2022/12/19 09:21:25;;;;;;;7.25;2.15;;;23.30;49.40;;;;;;4053162;29;20618;-50
2022/12/19 09:23:53;;;;;;;6.80;1.95;;;23.30;49.50;;;;;;4048441;29;20544;-53
2022/12/19 09:26:16;;;;;;;8.25;2.38;;;23.30;49.30;;;;;;4045531;29;20713;-48
2022/12/19 09:28:41;;;;;;;6.82;2.20;;;23.30;49.60;;;;;;4045575;29;20420;-52
2022/12/19 09:31:12;;;;;;;7.90;2.35;;;23.30;49.60;;;;;;4056964;29;20558;-51
2022/12/19 09:33:36;;;;;;;6.45;1.88;;;23.30;49.30;;;;;;4052491;29;20068;-52
2022/12/19 09:36:00;;;;;;;7.80;2.13;;;23.30;49.40;;;;;;4058525;29;20047;-50
2022/12/19 09:38:24;;;;;;;8.57;1.83;;;23.30;49.60;;;;;;4056024;29;20222;-48
2022/12/19 09:41:17;;;;;;;6.15;2.08;;;23.30;49.80;;;;;;4054738;29;20044;-51
2022/12/19 09:44:21;;;;;;;5.45;2.00;;;23.30;49.80;;;;;;4054783;29;20550;-46
2022/12/19 09:46:55;;;;;;;25.08;2.75;;;23.30;49.90;;;;;;4052941;29;20080;-49
2022/12/19 09:49:26;;;;;;;6.63;1.88;;;23.30;49.90;;;;;;4052157;29;20036;-47
2022/12/19 09:52:00;;;;;;;6.43;1.98;;;23.30;49.70;;;;;;4046169;29;20131;-55
2022/12/19 09:54:26;;;;;;;;;;;23.20;49.80;;;;;;4052657;29;20044;-45
2022/12/19 09:56:53;;;;;;;5.38;1.83;;;23.20;49.60;;;;;;4051342;29;19974;-44
2022/12/19 09:59:27;;;;;;;4.78;2.10;;;23.20;49.80;;;;;;4059155;29;20415;-46
2022/12/19 10:02:00;;;;;;;;;;;23.20;49.20;;;;;;4046109;29;20046;-44
2022/12/19 10:04:26;;;;;;;9.00;2.63;;;23.20;48.80;;;;;;4054980;29;20040;-47
2022/12/19 10:06:49;;;;;;;5.45;1.90;;;23.20;48.70;;;;;;4058841;29;20052;-45
2022/12/19 10:09:14;;;;;;;4.80;1.90;;;23.20;48.70;;;;;;4060500;29;20036;-46
2022/12/19 10:11:50;;;;;;;4.38;1.55;;;23.10;49.00;;;;;;4058248;29;20115;-43
2022/12/19 10:14:42;;;;;;;3.85;1.83;;;23.20;49.20;;;;;;4059461;29;20828;-47
2022/12/19 10:17:22;;;;;;;4.70;1.70;;;23.20;49.40;;;;;;4051999;29;20448;-48
2022/12/19 10:20:23;;;;;;;6.30;1.90;;;23.20;49.50;;;;;;4062598;29;20544;-46
2022/12/19 10:22:53;;;;;;;8.00;2.22;;;23.20;49.60;;;;;;4064320;29;20422;-43
2022/12/19 10:25:54;;;;;;;5.70;1.75;;;23.20;49.60;;;;;;4059126;29;20047;-45
2022/12/19 10:28:46;;;;;;;7.90;1.73;;;23.20;49.40;;;;;;4062539;29;20492;-48
2022/12/19 10:31:15;;;;;;;8.52;2.05;;;23.30;49.30;;;;;;4055008;29;20044;-55
2022/12/19 10:34:09;;;;;;;6.78;1.90;;;23.20;49.10;;;;;;4059292;29;20387;-51
2022/12/19 10:36:45;;;;;;;4.65;1.70;;;23.20;49.40;;;;;;4065705;29;20503;-44
2022/12/19 10:39:47;;;;;;;5.00;1.75;;;23.20;49.40;;;;;;4057884;29;20196;-46
2022/12/19 10:42:31;;;;;;;3.97;1.45;;;23.20;49.40;;;;;;4047996;29;20091;-45
2022/12/19 10:44:58;;;;;;;3.78;1.38;;;23.30;49.60;;;;;;4057936;29;20052;-45
2022/12/19 10:47:20;;;;;;;2.97;1.20;;;23.30;49.70;;;;;;4057978;29;20123;-48
2022/12/19 10:49:43;;;;;;;5.32;1.70;;;23.30;49.80;;;;;;4060442;29;20504;-50
2022/12/19 10:52:08;;;;;;;3.33;1.50;;;23.30;49.70;;;;;;4056126;29;20042;-47
2022/12/19 10:54:37;;;;;;;6.00;1.70;;;23.30;49.80;;;;;;4059084;29;20385;-44
2022/12/19 10:57:28;;;;;;;4.35;1.60;;;23.30;49.70;;;;;;4060871;29;20040;-45
2022/12/19 11:00:15;;;;;;;5.25;1.50;;;23.30;49.70;;;;;;4064915;29;20071;-43
2022/12/19 11:02:49;;;;;;;5.45;1.48;;;23.30;49.80;;;;;;4064786;29;20067;-50
2022/12/19 11:05:24;;;;;;;4.85;1.45;;;23.40;49.80;;;;;;4060039;29;20139;-43
2022/12/19 11:08:07;;;;;;;4.63;1.52;;;23.40;49.90;;;;;;4061635;29;20040;-45
2022/12/19 11:10:51;;;;;;;4.43;1.90;;;23.40;49.80;;;;;;4061952;29;20171;-46
2022/12/19 11:13:29;;;;;;;3.25;1.23;;;23.40;49.70;;;;;;4060493;29;20036;-48
2022/12/19 11:15:57;;;;;;;3.35;1.25;;;23.40;49.70;;;;;;4058197;29;20083;-46
2022/12/19 11:18:21;;;;;;;3.83;1.40;;;23.40;49.60;;;;;;4060218;29;20504;-47
2022/12/19 11:21:04;;;;;;;2.58;1.20;;;23.40;49.50;;;;;;4067119;29;20048;-44
2022/12/19 11:23:28;;;;;;;3.75;1.35;;;23.40;49.50;;;;;;4065588;29;20122;-50
2022/12/19 11:26:26;;;;;;;3.75;1.30;;;23.40;50.10;;;;;;4067805;29;20047;-45
2022/12/19 11:28:48;;;;;;;4.47;1.35;;;23.40;49.50;;;;;;4049489;29;20262;-49
2022/12/19 11:31:31;;;;;;;5.10;1.08;;;23.50;49.40;;;;;;4045188;29;20044;-46
2022/12/19 11:34:01;;;;;;;4.50;1.40;;;23.40;49.30;;;;;;4067166;29;20404;-44
2022/12/19 11:38:51;;;;;;;4.25;1.50;;;23.40;49.40;;;;;;4120217;23;20070;-42
2022/12/19 11:41:49;;;;;;;4.35;1.60;;;23.50;49.60;;;;;;4063596;29;20043;-45
2022/12/19 11:44:29;;;;;;;6.95;2.05;;;23.50;49.00;;;;;;4061770;29;20040;-45
2022/12/19 11:47:33;;;;;;;7.28;1.33;;;23.40;49.00;;;;;;4059191;29;20156;-46
2022/12/19 11:50:07;;;;;;;8.07;1.65;;;23.40;49.00;;;;;;4019405;29;20040;-47
2022/12/19 11:53:01;;;;;;;7.13;1.83;;;23.40;48.90;;;;;;4059961;29;20934;-45
2022/12/19 11:55:51;;;;;;;6.28;1.63;;;23.40;49.00;;;;;;4059877;29;20051;-45
2022/12/19 11:58:14;;;;;;;7.22;1.80;;;23.40;48.90;;;;;;4064990;29;20436;-44
2022/12/19 12:00:43;;;;;;;12.13;2.35;;;23.40;48.80;;;;;;4063592;29;20462;-44
2022/12/19 12:03:41;;;;;;;4.20;1.60;;;23.40;48.80;;;;;;4063902;29;20122;-45
2022/12/19 12:06:23;;;;;;;3.97;1.83;;;23.40;48.60;;;;;;4158507;23;20052;-54
2022/12/19 12:09:11;;;;;;;4.75;1.38;;;23.30;48.60;;;;;;4052358;29;20491;-55
2022/12/19 12:11:52;;;;;;;6.15;1.60;;;23.30;48.40;;;;;;4044172;29;20060;-58
2022/12/19 12:14:43;;;;;;;3.63;1.30;;;23.30;48.60;;;;;;4047202;29;20067;-54
2022/12/19 12:17:31;;;;;;;5.38;1.40;;;23.30;48.60;;;;;;4028005;29;20043;-51
2022/12/19 12:20:15;;;;;;;3.63;1.50;;;23.30;48.60;;;;;;4048540;29;21370;-53
2022/12/19 12:22:43;;;;;;;3.17;1.50;;;23.30;48.50;;;;;;4046140;29;20115;-55
2022/12/19 12:25:24;;;;;;;5.68;2.17;;;23.30;48.50;;;;;;4048162;29;20146;-58
2022/12/19 12:27:57;;;;;;;4.50;1.50;;;23.30;48.60;;;;;;4048503;29;20523;-56
2022/12/19 12:30:21;;;;;;;5.93;1.55;;;23.20;48.50;;;;;;4050744;29;20043;-56
2022/12/19 12:33:19;;;;;;;4.97;1.70;;;23.20;49.00;;;;;;4050295;29;20036;-57
2022/12/19 12:35:53;;;;;;;4.30;1.58;;;23.20;48.40;;;;;;4050091;29;20036;-53
2022/12/19 12:38:31;;;;;;;1.92;0.98;;;23.20;48.50;;;;;;4048273;29;20032;-52
2022/12/19 12:41:04;;;;;;;5.68;1.90;;;23.20;48.40;;;;;;4049680;29;20048;-54
2022/12/19 12:43:54;;;;;;;4.15;1.55;;;23.20;48.40;;;;;;4048177;29;20460;-58
2022/12/19 12:46:25;;;;;;;4.93;1.50;;;23.10;48.40;;;;;;4048247;29;20048;-57
2022/12/19 12:49:11;;;;;;;4.03;1.52;;;23.10;48.50;;;;;;4052075;29;20524;-51
2022/12/19 12:51:35;;;;;;;3.95;1.58;;;23.10;48.50;;;;;;4050597;29;20040;-55
2022/12/19 12:54:06;;;;;;;3.45;1.60;;;23.10;48.40;;;;;;4051361;29;20040;-58
2022/12/19 12:56:28;;;;;;;3.67;1.08;;;23.10;48.40;;;;;;4053638;29;20479;-59
2022/12/19 12:58:51;;;;;;;4.40;2.03;;;23.00;48.40;;;;;;4050051;29;20482;-56
2022/12/19 13:01:38;;;;;;;4.13;1.35;;;23.00;48.50;;;;;;4051831;29;20048;-56
2022/12/19 13:04:06;;;;;;;4.22;1.30;;;23.00;48.60;;;;;;4049434;29;20044;-58
2022/12/19 13:06:36;;;;;;;3.28;1.38;;;23.00;48.60;;;;;;4049115;29;20182;-53
2022/12/19 13:09:07;;;;;;;4.85;1.67;;;23.00;48.50;;;;;;4051167;29;20488;-54
2022/12/19 13:14:36;;;;;;;5.68;2.10;;;23.00;48.60;;;;;;4034096;29;20492;-53
2022/12/19 13:16:59;;;;;;;8.10;1.92;;;22.90;48.70;;;;;;4050302;29;20044;-54